createdAt,value
2023-02-16T00:01:17.526Z,-0.30
2023-02-16T00:03:44.390Z,-0.40
2023-02-16T00:06:15.795Z,-0.50
2023-02-16T00:08:50.795Z,-0.50
2023-02-16T00:11:52.292Z,-0.60
2023-02-16T00:14:22.592Z,-0.50
2023-02-16T00:16:50.153Z,-0.50
2023-02-16T00:19:36.832Z,-0.60
2023-02-16T00:22:04.852Z,-0.60
2023-02-16T00:24:31.832Z,-0.60
2023-02-16T00:27:00.376Z,-0.70
2023-02-16T00:29:30.656Z,-0.70
2023-02-16T00:31:58.785Z,-0.70
2023-02-16T00:34:32.867Z,-0.70
2023-02-16T00:37:05.118Z,-0.60
2023-02-16T00:39:31.827Z,-0.60
2023-02-16T00:42:01.797Z,-0.70
2023-02-16T00:44:33.751Z,-0.70
2023-02-16T00:47:22.359Z,-0.70
2023-02-16T00:49:51.608Z,-0.70
2023-02-16T00:52:25.209Z,-0.70
2023-02-16T00:54:52.020Z,-0.70
2023-02-16T00:57:19.857Z,-0.80
2023-02-16T00:59:48.690Z,-0.90
2023-02-16T01:02:15.613Z,-0.90
2023-02-16T01:04:42.246Z,-0.90
2023-02-16T01:07:31.890Z,-0.90
2023-02-16T01:10:17.052Z,-0.80
2023-02-16T01:12:43.628Z,-0.80
2023-02-16T01:15:13.895Z,-0.80
2023-02-16T01:17:40.605Z,-0.80
2023-02-16T01:20:16.192Z,-0.90
2023-02-16T01:22:42.792Z,-0.90
2023-02-16T01:25:09.547Z,-0.90
2023-02-16T01:27:39.646Z,-1.00
2023-02-16T01:30:08.479Z,-1.10
2023-02-16T01:32:35.061Z,-1.10
2023-02-16T01:35:01.612Z,-1.00
2023-02-16T01:37:28.424Z,-0.90
2023-02-16T01:39:54.971Z,-0.80
2023-02-16T01:42:41.241Z,-0.70
2023-02-16T01:45:19.312Z,-0.60
2023-02-16T01:47:53.170Z,-0.70
2023-02-16T01:50:23.176Z,-0.80
2023-02-16T01:53:15.972Z,-0.90
2023-02-16T01:55:46.965Z,-0.80
2023-02-16T01:58:41.874Z,-0.90
2023-02-16T02:01:39.527Z,-1.00
2023-02-16T02:04:59.138Z,-1.00
2023-02-16T02:07:31.132Z,-1.00
2023-02-16T02:10:28.013Z,-1.00
2023-02-16T02:13:07.220Z,-1.00
2023-02-16T02:15:34.717Z,-1.10
2023-02-16T02:18:01.850Z,-1.00
2023-02-16T02:21:14.893Z,-1.10
2023-02-16T02:24:14.116Z,-1.10
2023-02-16T02:27:18.533Z,-1.10
2023-02-16T02:30:08.005Z,-1.10
2023-02-16T02:32:55.910Z,-1.20
2023-02-16T02:36:07.789Z,-1.20
2023-02-16T02:38:56.962Z,-1.40
2023-02-16T02:41:55.469Z,-1.40
2023-02-16T02:44:26.903Z,-1.40
2023-02-16T02:46:53.639Z,-1.40
2023-02-16T02:49:20.375Z,-1.50
2023-02-16T02:51:47.956Z,-1.50
2023-02-16T02:54:37.722Z,-1.40
2023-02-16T02:57:29.148Z,-1.40
2023-02-16T03:00:24.501Z,-1.40
2023-02-16T03:02:54.962Z,-1.40
2023-02-16T03:05:22.975Z,-1.40
2023-02-16T03:07:52.278Z,-1.40
2023-02-16T03:10:45.154Z,-1.40
2023-02-16T03:13:17.434Z,-1.40
2023-02-16T03:15:47.849Z,-1.30
2023-02-16T03:18:35.136Z,-1.30
2023-02-16T03:21:22.121Z,-1.30
2023-02-16T03:24:09.843Z,-1.30
2023-02-16T03:26:56.416Z,-1.30
2023-02-16T03:29:26.032Z,-1.30
2023-02-16T03:31:55.222Z,-1.40
2023-02-16T03:34:22.524Z,-1.30
2023-02-16T03:36:58.390Z,-1.40
2023-02-16T03:39:27.432Z,-1.30
2023-02-16T03:41:55.845Z,-1.20
2023-02-16T03:44:22.897Z,-1.10
2023-02-16T03:46:49.566Z,-1.10
2023-02-16T03:49:17.212Z,-1.10
2023-02-16T03:51:43.947Z,-1.10
2023-02-16T03:54:10.720Z,-1.10
2023-02-16T03:56:37.409Z,-1.10
2023-02-16T03:59:04.005Z,-1.10
2023-02-16T04:01:30.599Z,-1.20
2023-02-16T04:03:57.223Z,-1.20
2023-02-16T04:06:23.870Z,-1.30
2023-02-16T04:08:50.848Z,-1.30
2023-02-16T04:11:35.958Z,-1.40
2023-02-16T04:14:03.271Z,-1.40
2023-02-16T04:16:29.962Z,-1.40
2023-02-16T04:18:56.702Z,-1.50
2023-02-16T04:21:23.249Z,-1.50
2023-02-16T04:23:49.790Z,-1.50
2023-02-16T04:26:16.319Z,-1.60
2023-02-16T04:28:42.892Z,-1.60
2023-02-16T04:31:09.867Z,-1.60
2023-02-16T04:33:36.485Z,-1.60
2023-02-16T04:36:03.060Z,-1.60
2023-02-16T04:38:30.210Z,-1.60
2023-02-16T04:40:56.851Z,-1.70
2023-02-16T04:43:23.525Z,-1.70
2023-02-16T04:45:50.211Z,-1.80
2023-02-16T04:48:16.843Z,-1.70
2023-02-16T04:50:43.413Z,-1.80
2023-02-16T04:53:10.002Z,-1.80
2023-02-16T04:55:36.780Z,-1.90
2023-02-16T04:58:03.390Z,-1.90
2023-02-16T05:00:29.973Z,-1.90
2023-02-16T05:02:57.094Z,-1.90
2023-02-16T05:05:23.679Z,-1.80
2023-02-16T05:07:50.224Z,-1.50
2023-02-16T05:10:16.815Z,-1.50
2023-02-16T05:13:03.684Z,-1.60
2023-02-16T05:15:30.512Z,-1.60
2023-02-16T05:17:57.303Z,-1.60
2023-02-16T05:20:43.954Z,-1.60
2023-02-16T05:23:10.582Z,-1.60
2023-02-16T05:25:37.112Z,-1.60
2023-02-16T05:28:03.772Z,-1.70
2023-02-16T05:30:30.444Z,-1.70
2023-02-16T05:32:57.019Z,-1.60
2023-02-16T05:35:23.569Z,-1.60
2023-02-16T05:37:50.115Z,-1.70
2023-02-16T05:40:16.745Z,-1.70
2023-02-16T05:42:43.312Z,-1.80
2023-02-16T05:45:10.576Z,-1.90
2023-02-16T05:47:37.136Z,-1.90
2023-02-16T05:50:03.928Z,-1.90
2023-02-16T05:52:30.527Z,-1.90
2023-02-16T05:54:57.101Z,-1.90
2023-02-16T05:57:23.676Z,-1.90
2023-02-16T05:59:50.223Z,-2.00
2023-02-16T06:02:16.806Z,-2.00
2023-02-16T06:04:43.441Z,-2.10
2023-02-16T06:07:10.005Z,-2.10
2023-02-16T06:09:36.547Z,-2.10
2023-02-16T06:12:03.441Z,-2.10
2023-02-16T06:14:30.112Z,-2.10
2023-02-16T06:16:58.703Z,-2.10
2023-02-16T06:19:26.843Z,-2.20
2023-02-16T06:21:53.431Z,-2.10
2023-02-16T06:24:20.005Z,-2.00
2023-02-16T06:26:46.596Z,-2.00
2023-02-16T06:29:13.152Z,-2.10
2023-02-16T06:31:39.838Z,-2.10
2023-02-16T06:34:06.843Z,-2.10
2023-02-16T06:36:34.480Z,-2.10
2023-02-16T06:39:01.395Z,-2.10
2023-02-16T06:41:40.795Z,-2.00
2023-02-16T06:44:12.484Z,-2.10
2023-02-16T06:46:43.219Z,-2.10
2023-02-16T06:49:15.325Z,-2.10
2023-02-16T06:51:42.019Z,-2.10
2023-02-16T06:54:08.903Z,-2.10
2023-02-16T06:56:37.668Z,-2.10
2023-02-16T06:59:04.541Z,-2.00
2023-02-16T07:01:31.378Z,-2.00
2023-02-16T07:03:58.484Z,-1.90
2023-02-16T07:06:27.701Z,-1.90
2023-02-16T07:08:54.676Z,-1.90
2023-02-16T07:11:21.985Z,-1.80
2023-02-16T07:13:49.108Z,-1.70
2023-02-16T07:16:16.135Z,-1.60
2023-02-16T07:18:42.902Z,-1.50
2023-02-16T07:21:09.493Z,-1.40
2023-02-16T07:23:36.090Z,-1.30
2023-02-16T07:26:02.790Z,-1.20
2023-02-16T07:28:31.605Z,-1.20
2023-02-16T07:30:58.328Z,-0.80
2023-02-16T07:33:25.024Z,-0.90
2023-02-16T07:35:51.821Z,-0.80
2023-02-16T07:38:18.381Z,-0.70
2023-02-16T07:40:45.007Z,-0.60
2023-02-16T07:43:11.690Z,-0.40
2023-02-16T07:45:38.466Z,-0.30
2023-02-16T07:48:05.302Z,-0.20
2023-02-16T07:50:31.871Z,0.00
2023-02-16T07:53:01.600Z,0.10
2023-02-16T07:55:28.298Z,0.20
2023-02-16T07:57:58.100Z,0.40
2023-02-16T08:00:26.709Z,0.50
2023-02-16T08:02:53.860Z,0.70
2023-02-16T08:05:20.586Z,0.80
2023-02-16T08:07:47.877Z,1.00
2023-02-16T08:10:15.700Z,1.20
2023-02-16T08:12:42.505Z,1.40
2023-02-16T08:15:09.882Z,1.60
2023-02-16T08:17:36.584Z,1.80
2023-02-16T08:20:05.340Z,2.00
2023-02-16T08:22:32.743Z,2.20
2023-02-16T08:24:59.842Z,2.50
2023-02-16T08:27:26.915Z,2.50
2023-02-16T08:29:54.177Z,2.70
2023-02-16T08:32:20.981Z,2.80
2023-02-16T08:34:47.644Z,3.00
2023-02-16T08:37:14.257Z,3.20
2023-02-16T08:39:41.455Z,3.20
2023-02-16T08:42:10.813Z,3.40
2023-02-16T08:44:37.458Z,3.50
2023-02-16T08:47:04.399Z,3.60
2023-02-16T08:49:31.071Z,3.70
2023-02-16T08:51:58.989Z,3.80
2023-02-16T08:54:29.891Z,3.90
2023-02-16T08:56:58.744Z,4.00
2023-02-16T08:59:28.353Z,4.10
2023-02-16T09:01:55.938Z,4.30
2023-02-16T09:06:52.347Z,4.70
2023-02-16T09:09:19.413Z,4.90
2023-02-16T09:11:46.729Z,5.00
2023-02-16T09:14:13.675Z,5.10
2023-02-16T09:16:45.404Z,5.30
2023-02-16T09:19:14.974Z,5.30
